Time;durP1;ratioP1;P1;durP2;ratioP2;P2;SDS_P1;SDS_P2;PMS_P1;PMS_P2;Temp;Humidity;BMP_temperature;BMP_pressure;BME280_temperature;BME280_humidity;BME280_pressure;Samples;Min_cycle;Max_cycle;Signal;HPM_P1;HPM_P2
2021/09/04 00:02:17;;;;;;;0.90;0.90;;;;;;;14.62;100.00;-7275.63;6278984;22;20427;-73
2021/09/04 00:04:45;;;;;;;0.77;0.77;;;;;;;14.55;100.00;-7690.34;6277848;22;20375;-73
2021/09/04 00:07:12;;;;;;;0.80;0.70;;;;;;;14.93;100.00;-7864.66;6277587;22;20482;-72
2021/09/04 00:09:39;;;;;;;0.80;0.70;;;;;;;14.54;100.00;-7442.28;6278252;22;20452;-72
2021/09/04 00:12:08;;;;;;;1.27;0.90;;;;;;;14.33;100.00;-7552.50;6251229;22;20422;-72
2021/09/04 00:14:36;;;;;;;0.70;0.70;;;;;;;14.30;100.00;-8341.53;6251628;22;20404;-72
2021/09/04 00:17:04;;;;;;;0.80;0.70;;;;;;;14.44;100.00;-7950.34;6278051;22;20388;-72
2021/09/04 00:19:31;;;;;;;0.70;0.60;;;;;;;14.35;100.00;-8645.38;6278483;22;20440;-72
2021/09/04 00:21:58;;;;;;;0.93;0.93;;;;;;;14.29;100.00;-8955.97;6251824;22;20398;-73
2021/09/04 00:24:26;;;;;;;0.73;0.70;;;;;;;14.71;100.00;-8344.25;6250917;22;20837;-72
2021/09/04 00:26:53;;;;;;;0.70;0.60;;;;;;;14.40;100.00;-8332.06;6249917;22;20785;-71
2021/09/04 00:29:26;;;;;;;0.70;0.70;;;;;;;14.46;100.00;-7765.78;6250432;22;20973;-71
2021/09/04 00:31:54;;;;;;;0.70;0.60;;;;;;;14.31;100.00;-7790.16;6250979;22;20460;-73
2021/09/04 00:34:21;;;;;;;0.70;0.60;;;;;;;14.35;100.00;-7400.81;6225782;22;20407;-72
2021/09/04 00:36:48;;;;;;;0.70;0.70;;;;;;;14.41;100.00;-6641.94;6277823;22;20396;-72
2021/09/04 00:39:15;;;;;;;1.20;1.10;;;;;;;14.17;100.00;-7344.22;6278725;22;20399;-72
2021/09/04 00:41:44;;;;;;;0.90;0.80;;;;;;;14.47;100.00;-6900.34;6277744;22;20761;-72
2021/09/04 00:44:15;;;;;;;0.70;0.60;;;;;;;14.46;100.00;-6525.69;6277815;22;20766;-72
2021/09/04 00:46:43;;;;;;;1.00;0.90;;;;;;;14.49;100.00;-6024.56;6276758;22;20379;-71
2021/09/04 00:49:12;;;;;;;0.80;0.70;;;;;;;14.32;100.00;-5973.44;6278168;22;20392;-72
2021/09/04 00:51:39;;;;;;;0.70;0.60;;;;;;;14.13;100.00;-6451.09;6250912;22;20451;-72
2021/09/04 00:54:07;;;;;;;1.40;1.30;;;;;;;14.23;100.00;-7030.84;6250563;22;20891;-72
2021/09/04 00:56:37;;;;;;;0.70;0.70;;;;;;;14.27;100.00;-7997.38;6249967;22;20399;-72
2021/09/04 00:59:06;;;;;;;0.70;0.60;;;;;;;14.41;100.00;-8402.97;6278253;22;20378;-71
2021/09/04 01:01:34;;;;;;;0.70;0.70;;;;;;;14.36;100.00;-8711.22;6278052;22;20394;-72
2021/09/04 01:04:05;;;;;;;0.70;0.60;;;;;;;14.40;100.00;-8443.41;6278062;22;20437;-72
2021/09/04 01:06:32;;;;;;;0.70;0.60;;;;;;;14.46;100.00;-7806.22;6249911;22;20884;-72
2021/09/04 01:08:59;;;;;;;0.77;0.73;;;;;;;14.47;100.00;-7290.06;6250928;22;20771;-72
2021/09/04 01:11:29;;;;;;;0.70;0.70;;;;;;;14.44;100.00;-6725.56;6277414;22;20509;-72
2021/09/04 01:13:56;;;;;;;0.80;0.70;;;;;;;14.41;100.00;-6231.91;6250118;22;20372;-72
2021/09/04 01:16:33;;;;;;;0.90;0.80;;;;;;;14.40;100.00;-5690.16;6250439;22;20915;-72
2021/09/04 01:19:00;;;;;;;0.70;0.67;;;;;;;14.40;100.00;-5262.25;6225394;22;20457;-72
2021/09/04 01:21:29;;;;;;;0.80;0.80;;;;;;;14.41;100.00;-4847.00;6226129;22;20394;-72
2021/09/04 01:23:56;;;;;;;0.70;0.60;;;;;;;14.33;100.00;-4570.94;6250013;22;20983;-71
2021/09/04 01:26:27;;;;;;;0.73;0.70;;;;;;;14.39;100.00;-4213.88;6249678;22;20412;-72
2021/09/04 01:28:58;;;;;;;0.80;0.70;;;;;;;14.39;100.00;-3808.59;6277220;22;20839;-72
2021/09/04 01:31:27;;;;;;;0.70;0.67;;;;;;;14.36;100.00;-3413.47;6249677;22;20188;-73
2021/09/04 01:33:56;;;;;;;1.53;1.43;;;;;;;14.32;100.00;-3076.59;6275322;22;20409;-72
2021/09/04 01:36:30;;;;;;;0.70;0.70;;;;;;;14.05;100.00;-3482.22;6250155;22;20398;-71
2021/09/04 01:39:02;;;;;;;0.73;0.70;;;;;;;14.19;100.00;-2772.88;6277469;22;20905;-72
2021/09/04 01:41:31;;;;;;;0.83;0.83;;;;;;;13.96;100.00;-3355.75;6225118;22;20398;-72
2021/09/04 01:43:59;;;;;;;0.70;0.60;;;;;;;14.02;100.00;-3565.78;6276934;22;20383;-72
2021/09/04 01:46:27;;;;;;;0.80;0.67;;;;;;;14.00;100.00;-4067.03;6250596;22;20494;-72
2021/09/04 01:48:54;;;;;;;0.70;0.60;;;;;;;13.94;100.00;-4307.50;6225168;22;20528;-72
2021/09/04 01:51:21;;;;;;;0.70;0.60;;;;;;;13.89;100.00;-4537.75;6275989;22;20462;-72
2021/09/04 01:53:49;;;;;;;0.70;0.60;;;;;;;13.88;100.00;-4879.34;6251014;22;20414;-72
2021/09/04 01:56:17;;;;;;;0.80;0.70;;;;;;;13.86;100.00;-5101.94;6250509;22;20405;-72
2021/09/04 01:58:46;;;;;;;0.70;0.70;;;;;;;13.80;100.00;-5375.03;6250409;22;20432;-72
2021/09/04 02:01:33;;;;;;;0.80;0.80;;;;;;;13.82;100.00;-5499.03;6276908;22;20409;-71
2021/09/04 02:04:01;;;;;;;0.70;0.60;;;;;;;13.83;100.00;-5673.56;6249767;22;20393;-72
2021/09/04 02:06:30;;;;;;;0.70;0.70;;;;;;;13.84;100.00;-5961.94;6250377;22;20367;-71
2021/09/04 02:08:57;;;;;;;0.70;0.70;;;;;;;13.87;100.00;-6321.16;6275902;22;20468;-72
2021/09/04 02:11:24;;;;;;;0.70;0.60;;;;;;;13.87;100.00;-6606.91;6276443;22;20903;-72
2021/09/04 02:13:53;;;;;;;0.70;0.60;;;;;;;13.84;100.00;-6877.38;6225006;22;20398;-72
2021/09/04 02:16:20;;;;;;;1.70;1.10;;;;;;;13.78;100.00;-7054.06;6250226;22;20768;-72
2021/09/04 02:18:47;;;;;;;0.70;0.60;;;;;;;13.73;100.00;-7170.09;6248712;22;20774;-72
2021/09/04 02:21:14;;;;;;;0.70;0.70;;;;;;;13.70;100.00;-7377.22;6275289;22;20850;-72
2021/09/04 02:23:42;;;;;;;0.80;0.77;;;;;;;13.71;100.00;-7539.03;6276685;22;20743;-72
2021/09/04 02:26:10;;;;;;;0.77;0.73;;;;;;;13.69;100.00;-7789.13;6275925;22;20398;-72
2021/09/04 02:28:37;;;;;;;1.10;1.00;;;;;;;13.65;100.00;-8044.09;6223772;22;20496;-72
2021/09/04 02:31:06;;;;;;;1.00;0.90;;;;;;;13.60;100.00;-8362.09;6276900;22;20901;-72
2021/09/04 02:33:34;;;;;;;1.10;1.00;;;;;;;13.52;100.00;-8578.84;6277095;22;20390;-72
2021/09/04 02:36:02;;;;;;;0.80;0.80;;;;;;;13.52;100.00;-8684.88;6276716;22;20470;-72
2021/09/04 02:38:29;;;;;;;0.70;0.63;;;;;;;13.47;100.00;-8843.66;6275976;22;20414;-72
2021/09/04 02:40:57;;;;;;;0.70;0.60;;;;;;;13.45;100.00;-9063.22;6275950;22;20398;-72
2021/09/04 02:43:27;;;;;;;0.70;0.60;;;;;;;13.38;100.00;-9395.91;6250708;22;20367;-72
2021/09/04 02:45:54;;;;;;;0.70;0.70;;;;;;;13.34;100.00;-9693.44;6275778;22;20474;-71
2021/09/04 02:48:23;;;;;;;0.70;0.60;;;;;;;13.38;100.00;-10115.34;6277023;22;20395;-72
2021/09/04 02:50:50;;;;;;;0.80;0.80;;;;;;;13.36;100.00;-10317.06;6249756;22;20416;-72
2021/09/04 02:53:17;;;;;;;0.80;0.70;;;;;;;13.17;100.00;-11172.94;6277041;22;20457;-72
2021/09/04 02:55:45;;;;;;;0.80;0.70;;;;;;;13.21;100.00;-11887.13;6276452;22;20401;-71
2021/09/04 02:58:12;;;;;;;0.70;0.60;;;;;;;13.38;100.00;-11672.31;6276958;22;20376;-72
2021/09/04 03:00:39;;;;;;;0.70;0.60;;;;;;;13.51;100.00;-11133.88;6249896;22;20377;-72
2021/09/04 03:03:07;;;;;;;0.80;0.70;;;;;;;13.54;100.00;-10866.66;6249791;22;20405;-71
2021/09/04 03:05:36;;;;;;;0.70;0.70;;;;;;;13.61;100.00;-10493.69;6249190;22;20429;-71
2021/09/04 03:08:04;;;;;;;1.30;1.20;;;;;;;13.56;100.00;-10154.94;6276755;22;20411;-72
2021/09/04 03:10:31;;;;;;;0.70;0.60;;;;;;;13.50;100.00;-9906.97;6248964;22;20418;-72
2021/09/04 03:13:00;;;;;;;0.70;0.60;;;;;;;13.46;100.00;-9623.84;6249144;22;20490;-71
2021/09/04 03:15:27;;;;;;;0.80;0.70;;;;;;;13.47;100.00;-9310.78;6249840;22;20825;-72
2021/09/04 03:17:55;;;;;;;0.70;0.60;;;;;;;13.42;100.00;-9032.66;6276297;22;20387;-72
2021/09/04 03:20:22;;;;;;;0.70;0.60;;;;;;;13.45;100.00;-8825.84;6276471;22;20368;-71
2021/09/04 03:22:51;;;;;;;0.70;0.60;;;;;;;13.39;100.00;-8721.84;6275962;22;20403;-71
2021/09/04 03:25:22;;;;;;;0.70;0.70;;;;;;;13.38;100.00;-8522.25;6276553;22;20407;-72
2021/09/04 03:27:49;;;;;;;0.97;0.97;;;;;;;13.34;100.00;-8352.81;6246075;22;20421;-71
2021/09/04 03:30:17;;;;;;;0.70;0.70;;;;;;;13.35;100.00;-8070.03;6248391;22;20417;-71
2021/09/04 03:32:44;;;;;;;0.70;0.63;;;;;;;13.37;100.00;-7739.28;6276038;22;20472;-72
2021/09/04 03:35:11;;;;;;;0.80;0.70;;;;;;;13.33;100.00;-7559.72;6276475;22;20371;-71
2021/09/04 03:37:39;;;;;;;0.70;0.70;;;;;;;13.28;100.00;-7463.47;6276817;22;20404;-71
2021/09/04 03:40:10;;;;;;;0.80;0.70;;;;;;;13.28;100.00;-7339.72;6275803;22;20368;-73
2021/09/04 03:42:37;;;;;;;0.90;0.80;;;;;;;13.35;100.00;-7193.53;6275226;22;20383;-71
2021/09/04 03:45:06;;;;;;;0.77;0.70;;;;;;;13.34;100.00;-7233.91;6276306;22;20419;-72
2021/09/04 03:47:34;;;;;;;0.70;0.60;;;;;;;13.33;100.00;-7173.25;6276049;22;20847;-71
2021/09/04 03:50:03;;;;;;;1.00;0.87;;;;;;;13.28;100.00;-7170.47;6276223;22;20392;-72
2021/09/04 03:52:30;;;;;;;0.73;0.70;;;;;;;13.33;100.00;-6897.84;6275872;22;20438;-71
2021/09/04 03:54:58;;;;;;;0.80;0.80;;;;;;;13.05;100.00;-7181.97;6249251;22;20415;-72
2021/09/04 03:57:26;;;;;;;0.70;0.60;;;;;;;12.84;100.00;-7741.28;6222715;22;20436;-71
2021/09/04 03:59:53;;;;;;;0.70;0.70;;;;;;;12.86;100.00;-8215.78;6276109;22;20421;-71
2021/09/04 04:02:22;;;;;;;0.70;0.70;;;;;;;12.80;100.00;-9007.63;6276066;22;20378;-71
2021/09/04 04:04:50;;;;;;;0.80;0.77;;;;;;;12.86;100.00;-9474.72;6248855;22;20490;-71
2021/09/04 04:07:16;;;;;;;0.70;0.60;;;;;;;12.80;100.00;-10142.63;6275972;22;20394;-71
2021/09/04 04:09:44;;;;;;;0.70;0.60;;;;;;;12.77;100.00;-10828.13;6249496;22;20501;-72
2021/09/04 04:12:12;;;;;;;0.80;0.80;;;;;;;12.77;100.00;-11609.50;6248458;22;20434;-71
2021/09/04 04:14:40;;;;;;;0.80;0.70;;;;;;;12.78;100.00;-12229.66;6276240;22;20702;-71
2021/09/04 04:17:07;;;;;;;0.70;0.70;;;;;;;12.76;100.00;-12793.75;6275555;22;20382;-71
2021/09/04 04:19:35;;;;;;;1.13;1.03;;;;;;;12.75;100.00;-13282.34;6276364;22;20375;-71
2021/09/04 04:22:03;;;;;;;0.70;0.70;;;;;;;12.73;100.00;-13720.31;6224785;22;20724;-71
2021/09/04 04:24:30;;;;;;;0.70;0.60;;;;;;;12.80;100.00;-14028.69;6277762;22;20403;-72
2021/09/04 04:26:57;;;;;;;0.80;0.80;;;;;;;12.81;100.00;-14245.53;6277649;22;20844;-71
2021/09/04 04:29:25;;;;;;;0.77;0.73;;;;;;;12.80;100.00;-14444.34;6277722;22;20371;-73
2021/09/04 04:31:53;;;;;;;0.70;0.70;;;;;;;12.75;100.00;-14592.06;6277774;22;20516;-72
2021/09/04 04:34:23;;;;;;;0.70;0.60;;;;;;;12.70;100.00;-14868.06;6277533;22;20370;-73
2021/09/04 04:36:50;;;;;;;1.37;0.83;;;;;;;12.66;100.00;-15068.75;6277200;22;20398;-71
2021/09/04 04:39:17;;;;;;;0.70;0.60;;;;;;;12.67;100.00;-15358.41;6278169;22;20504;-72
2021/09/04 04:41:47;;;;;;;0.70;0.60;;;;;;;12.72;100.00;-15643.88;6277352;22;20379;-71
2021/09/04 04:44:15;;;;;;;0.70;0.60;;;;;;;12.80;100.00;-16048.03;6276531;22;20368;-71
2021/09/04 04:46:43;;;;;;;0.80;0.70;;;;;;;12.78;100.00;-16568.66;6250342;22;20859;-72
2021/09/04 04:49:11;;;;;;;0.80;0.77;;;;;;;12.73;100.00;-16862.03;6225202;22;20418;-71
2021/09/04 04:51:39;;;;;;;0.70;0.70;;;;;;;12.71;100.00;-17052.94;6278427;22;20743;-72
2021/09/04 04:54:07;;;;;;;2.00;1.80;;;;;;;12.75;100.00;-17058.72;6279349;22;21075;-72
2021/09/04 04:56:34;;;;;;;0.70;0.70;;;;;;;12.73;100.00;-17093.63;6278256;22;20377;-71
2021/09/04 04:59:02;;;;;;;0.70;0.60;;;;;;;12.76;100.00;-17139.44;6277483;22;20404;-71
2021/09/04 05:01:29;;;;;;;0.70;0.60;;;;;;;12.76;100.00;-17270.28;6277581;22;20908;-71
2021/09/04 05:03:56;;;;;;;0.80;0.80;;;;;;;12.74;100.00;-17400.66;6277089;22;20367;-72
2021/09/04 05:06:25;;;;;;;0.80;0.70;;;;;;;12.77;100.00;-17449.13;6277587;22;20368;-71
2021/09/04 05:08:54;;;;;;;0.80;0.80;;;;;;;12.84;100.00;-17513.56;6277899;22;20419;-72
2021/09/04 05:11:22;;;;;;;0.70;0.60;;;;;;;12.91;100.00;-17625.81;6277297;22;20477;-71
2021/09/04 05:13:51;;;;;;;2.07;1.97;;;;;;;12.98;100.00;-17768.16;6276565;22;20453;-72
2021/09/04 05:16:19;;;;;;;0.70;0.67;;;;;;;12.98;100.00;-17863.78;6250477;22;20374;-71
2021/09/04 05:18:47;;;;;;;1.00;0.90;;;;;;;13.05;100.00;-17875.53;6251182;22;20877;-72
2021/09/04 05:21:15;;;;;;;0.70;0.60;;;;;;;13.04;100.00;-17900.47;6277626;22;20398;-71
2021/09/04 05:23:44;;;;;;;0.80;0.70;;;;;;;13.06;100.00;-17870.63;6275492;22;20414;-72
2021/09/04 05:26:13;;;;;;;0.90;0.60;;;;;;;13.11;100.00;-17866.69;6249717;22;20374;-72
2021/09/04 05:28:40;;;;;;;0.70;0.70;;;;;;;13.18;100.00;-17840.47;6277207;22;20852;-72
2021/09/04 05:31:07;;;;;;;0.70;0.60;;;;;;;13.22;100.00;-17937.03;6249200;22;20498;-72
2021/09/04 05:33:34;;;;;;;0.70;0.60;;;;;;;13.27;100.00;-18021.22;6249732;22;20461;-72
2021/09/04 05:36:01;;;;;;;0.70;0.60;;;;;;;13.36;100.00;-18063.56;6250125;22;20414;-72
2021/09/04 05:38:30;;;;;;;0.70;0.70;;;;;;;13.40;100.00;-18235.69;6277087;22;20402;-71
2021/09/04 05:40:59;;;;;;;0.70;0.60;;;;;;;13.44;100.00;-18370.06;6276844;22;20405;-72
2021/09/04 05:43:25;;;;;;;0.83;0.80;;;;;;;13.52;100.00;-18636.31;6248897;22;20426;-72
2021/09/04 05:45:52;;;;;;;0.70;0.60;;;;;;;13.59;100.00;-18814.00;6248363;22;20624;-72
2021/09/04 05:48:19;;;;;;;4.20;1.47;;;;;;;13.68;100.00;-18846.50;6274858;22;20852;-73
2021/09/04 05:50:46;;;;;;;0.70;0.60;;;;;;;13.77;100.00;-18840.97;6274071;22;20462;-72
2021/09/04 05:53:13;;;;;;;0.70;0.60;;;;;;;13.83;100.00;-18870.13;6223653;22;20447;-72
2021/09/04 05:55:40;;;;;;;0.70;0.60;;;;;;;13.88;100.00;-18815.78;6250182;22;20495;-72
2021/09/04 05:58:08;;;;;;;1.10;0.90;;;;;;;14.00;100.00;-18748.22;6277028;22;20390;-72
2021/09/04 06:00:35;;;;;;;0.70;0.57;;;;;;;14.09;100.00;-18687.09;6248966;22;20391;-70
2021/09/04 06:03:02;;;;;;;0.70;0.60;;;;;;;14.17;100.00;-18547.97;6277284;22;20828;-71
2021/09/04 06:05:31;;;;;;;0.70;0.67;;;;;;;14.23;100.00;-18496.44;6250339;22;20469;-72
2021/09/04 06:07:58;;;;;;;0.70;0.60;;;;;;;14.31;100.00;-18346.91;6275606;22;20457;-71
2021/09/04 06:10:25;;;;;;;0.70;0.60;;;;;;;14.40;100.00;-18192.50;6276098;22;20398;-71
2021/09/04 06:12:54;;;;;;;0.70;0.60;;;;;;;14.53;100.00;-17955.72;6250098;22;20493;-71
2021/09/04 06:15:22;;;;;;;0.70;0.60;;;;;;;14.64;100.00;-17718.50;6277409;22;20378;-71
2021/09/04 06:17:49;;;;;;;0.70;0.60;;;;;;;14.73;100.00;-17455.59;6250429;22;20390;-71
2021/09/04 06:20:17;;;;;;;0.70;0.70;;;;;;;14.84;100.00;-17101.81;6276114;22;20862;-71
2021/09/04 06:22:44;;;;;;;0.70;0.60;;;;;;;14.95;100.00;-16811.34;6250289;22;20479;-72
2021/09/04 06:25:11;;;;;;;0.70;0.70;;;;;;;15.06;100.00;-16540.72;6246806;22;20405;-71
2021/09/04 06:27:39;;;;;;;0.70;0.60;;;;;;;15.18;100.00;-16222.16;6249215;22;20410;-72
2021/09/04 06:30:07;;;;;;;1.00;0.90;;;;;;;15.34;100.00;-15798.06;6248951;22;20378;-72
2021/09/04 06:32:35;;;;;;;0.70;0.70;;;;;;;15.49;100.00;-15118.13;6276624;22;20418;-72
2021/09/04 06:35:02;;;;;;;1.10;1.00;;;;;;;15.61;100.00;-14457.63;6276855;22;20436;-71
2021/09/04 06:37:30;;;;;;;0.77;0.70;;;;;;;15.70;100.00;-13543.03;6276281;22;20799;-72
2021/09/04 06:39:57;;;;;;;0.80;0.70;;;;;;;15.81;100.00;-12663.72;6276556;22;20389;-72
2021/09/04 06:42:27;;;;;;;0.70;0.70;;;;;;;15.87;100.00;-11833.81;6249144;22;20927;-72
2021/09/04 06:44:53;;;;;;;0.80;0.80;;;;;;;15.91;100.00;-11183.28;6275224;22;20376;-72
2021/09/04 06:47:20;;;;;;;1.70;1.40;;;;;;;16.00;100.00;-10259.31;6276696;22;20378;-72
2021/09/04 06:49:53;;;;;;;0.80;0.70;;;;;;;16.04;100.00;-9625.94;6275626;22;20381;-72
2021/09/04 06:52:21;;;;;;;1.00;0.90;;;;;;;16.12;100.00;-8708.66;6249764;22;20420;-72
2021/09/04 06:54:49;;;;;;;0.70;0.70;;;;;;;16.25;100.00;-7481.56;6276353;22;20930;-72
2021/09/04 06:57:15;;;;;;;0.70;0.70;;;;;;;16.37;100.00;-6537.84;6276951;22;20372;-72
2021/09/04 06:59:42;;;;;;;1.10;1.00;;;;;;;16.49;100.00;-5448.66;6276109;22;20485;-72
2021/09/04 07:02:09;;;;;;;1.27;1.17;;;;;;;16.62;100.00;-4244.34;6275525;22;20374;-72
2021/09/04 07:04:37;;;;;;;0.73;0.73;;;;;;;16.76;100.00;-3148.44;6249185;22;20449;-73
2021/09/04 07:07:06;;;;;;;0.80;0.80;;;;;;;17.03;100.00;-1570.16;6276622;22;20446;-72
2021/09/04 07:09:33;;;;;;;0.70;0.60;;;;;;;17.06;100.00;-225.66;6275882;22;20470;-73
2021/09/04 07:12:00;;;;;;;0.90;0.80;;;;;;;17.13;100.00;1175.91;6275500;22;20480;-71
2021/09/04 07:14:27;;;;;;;0.70;0.70;;;;;;;17.33;100.00;3207.22;6276374;22;20418;-72
2021/09/04 07:16:54;;;;;;;0.90;0.90;;;;;;;17.55;100.00;5366.34;6249558;22;20409;-72
2021/09/04 07:19:21;;;;;;;0.70;0.70;;;;;;;17.96;100.00;7777.44;6273246;22;20707;-73
2021/09/04 07:21:48;;;;;;;0.70;0.60;;;;;;;18.20;100.00;10015.63;6248670;22;20390;-73
2021/09/04 07:24:17;;;;;;;0.80;0.73;;;;;;;18.38;100.00;11814.63;6275694;22;20399;-72
2021/09/04 07:26:44;;;;;;;0.80;0.80;;;;;;;18.73;100.00;14190.19;6223595;22;20395;-72
2021/09/04 07:29:11;;;;;;;1.10;1.00;;;;;;;19.31;100.00;17189.09;6245541;22;20678;-73
2021/09/04 07:31:40;;;;;;;0.70;0.70;;;;;;;19.62;100.00;19133.28;6274363;22;20367;-73
2021/09/04 07:34:07;;;;;;;0.70;0.70;;;;;;;19.91;100.00;20250.72;6275005;22;20411;-72
2021/09/04 07:36:34;;;;;;;1.20;1.10;;;;;;;20.00;100.00;20905.75;6276404;22;20461;-72
2021/09/04 07:39:01;;;;;;;0.73;0.60;;;;;;;19.86;100.00;20387.72;6274570;22;20407;-72
2021/09/04 07:41:29;;;;;;;0.80;0.80;;;;;;;20.32;100.00;20756.22;6248458;22;20422;-72
2021/09/04 07:43:56;;;;;;;0.93;0.83;;;;;;;20.81;100.00;19523.31;6276108;22;20412;-72
2021/09/04 07:46:24;;;;;;;0.80;0.80;;;;;;;21.10;100.00;11118.56;6248686;22;20401;-72
2021/09/04 07:48:51;;;;;;;0.80;0.70;;;;;;;21.49;100.00;-9485.50;6275060;22;20380;-72
2021/09/04 07:51:18;;;;;;;1.50;1.40;;;;;;;21.56;100.00;-21265.38;6276116;22;20338;-73
2021/09/04 07:53:45;;;;;;;3.37;1.10;;;;;;;21.85;100.00;-21273.16;6275970;22;20397;-72
2021/09/04 07:56:12;;;;;;;3.53;0.93;;;;;;;21.79;100.00;-21271.50;6248644;22;20346;-72
2021/09/04 07:58:40;;;;;;;0.73;0.63;;;;;;;21.42;100.00;-21261.56;6276026;22;20421;-73
2021/09/04 08:01:07;;;;;;;0.70;0.70;;;;;;;21.94;100.00;-21275.47;6277940;22;20407;-73
2021/09/04 08:03:37;;;;;;;0.90;0.80;;;;;;;21.36;100.00;-21259.94;6251443;22;20418;-72
2021/09/04 08:06:05;;;;;;;0.90;0.90;;;;;;;21.36;100.00;-21259.94;6279238;22;20707;-73
2021/09/04 08:08:33;;;;;;;1.30;1.13;;;;;;;21.63;100.00;-21267.28;6280137;22;20429;-73
2021/09/04 08:11:22;;;;;;;0.90;0.90;;;;;;;22.07;100.00;-21278.88;6278644;22;20370;-72
2021/09/04 08:13:50;;;;;;;0.80;0.70;;;;;;;22.00;100.00;-21277.09;6277409;22;20461;-73
2021/09/04 08:16:17;;;;;;;0.80;0.80;;;;;;;22.33;100.00;-21285.81;6277229;22;20462;-73
2021/09/04 08:18:44;;;;;;;0.90;0.90;;;;;;;22.47;100.00;-21289.50;6277148;22;20753;-72
2021/09/04 08:21:11;;;;;;;1.10;0.93;;;;;;;22.36;100.00;-21286.66;6278361;22;20819;-73
2021/09/04 08:23:38;;;;;;;0.70;0.70;;;;;;;22.06;100.00;-21278.59;6250384;22;20419;-74
2021/09/04 08:26:05;;;;;;;1.10;1.00;;;;;;;22.21;100.00;-21282.69;6277219;22;20412;-72
2021/09/04 08:28:32;;;;;;;0.97;0.90;;;;;;;22.12;100.00;-21280.38;6250732;22;20406;-72
2021/09/04 08:31:00;;;;;;;0.77;0.60;;;;;;;22.46;100.00;-21289.38;6250152;22;20406;-73
2021/09/04 08:33:28;;;;;;;0.80;0.70;;;;;;;22.29;100.00;-21284.75;6278092;22;20434;-73
2021/09/04 08:35:55;;;;;;;0.70;0.60;;;;;;;22.82;100.00;-21298.88;6277244;22;20449;-72
2021/09/04 08:38:22;;;;;;;1.20;0.90;;;;;;;23.03;100.00;-21304.47;6277674;22;20414;-71
2021/09/04 08:40:51;;;;;;;1.83;0.90;;;;;;;23.27;100.00;-21310.88;6277470;22;20768;-69
2021/09/04 08:43:18;;;;;;;2.90;2.70;;;;;;;24.23;100.00;-21336.41;6277919;22;20383;-70
2021/09/04 08:45:45;;;;;;;0.80;0.60;;;;;;;24.94;100.00;-21355.41;6277650;22;20372;-70
2021/09/04 08:48:14;;;;;;;0.80;0.80;;;;;;;24.93;100.00;-21355.00;6276885;22;20387;-71
2021/09/04 08:50:41;;;;;;;2.70;1.13;;;;;;;24.74;100.00;-21350.13;6250603;22;20368;-72
2021/09/04 08:53:08;;;;;;;1.60;1.50;;;;;;;25.43;100.00;-21368.31;6276860;22;20902;-72
2021/09/04 08:55:35;;;;;;;0.90;0.80;;;;;;;27.01;100.00;-21410.16;6225404;22;20449;-70
2021/09/04 08:58:03;;;;;;;3.47;1.30;;;;;;;27.33;100.00;-21418.81;6277327;22;20758;-71
2021/09/04 09:00:32;;;;;;;1.33;1.23;;;;;;;27.29;100.00;-21417.72;6276886;22;20371;-72
2021/09/04 09:02:59;;;;;;;1.27;1.07;;;;;;;27.45;100.00;-21421.91;6249983;22;20395;-71
2021/09/04 09:05:38;;;;;;;1.23;1.10;;;;;;;28.17;100.00;-21441.09;6276184;22;20712;-72
2021/09/04 09:08:04;;;;;;;2.23;1.00;;;;;;;28.14;100.00;-21440.16;6277325;22;20407;-72
2021/09/04 09:10:35;;;;;;;2.10;1.90;;;;;;;29.03;100.00;-21463.63;6274827;22;20458;-70
2021/09/04 09:13:02;;;;;;;1.43;0.80;;;;;;;27.77;100.00;-21430.41;6274957;22;20375;-69
2021/09/04 09:15:32;;;;;;;0.80;0.80;;;;;;;28.50;100.00;-21449.59;6275617;22;20411;-69
2021/09/04 09:18:03;;;;;;;1.23;1.13;;;;;;;28.89;100.00;-21459.97;6276786;22;20379;-69
2021/09/04 09:20:32;;;;;;;1.17;0.80;;;;;;;29.18;100.00;-21467.66;6277533;22;20398;-69
2021/09/04 09:23:07;;;;;;;3.10;1.60;;;;;;;28.56;100.00;-21451.22;6277502;22;20449;-69
2021/09/04 09:25:34;;;;;;;1.10;1.00;;;;;;;28.32;100.00;-21445.00;6250443;22;20394;-69
2021/09/04 09:28:04;;;;;;;0.90;0.80;;;;;;;28.65;100.00;-21453.63;6277205;22;20697;-69
2021/09/04 09:30:33;;;;;;;1.20;1.00;;;;;;;29.91;100.00;-21486.78;6248707;22;20391;-69
2021/09/04 09:33:01;;;;;;;1.00;0.90;;;;;;;30.15;100.00;-21493.25;6277285;22;20889;-69
2021/09/04 09:35:35;;;;;;;0.90;0.80;;;;;;;29.87;100.00;-21485.84;6250347;22;20384;-72
2021/09/04 09:38:04;;;;;;;1.27;1.17;;;;;;;28.96;100.00;-21461.84;6250249;22;20434;-69
2021/09/04 09:40:31;;;;;;;1.83;1.73;;;;;;;29.83;100.00;-21484.91;6250839;22;20783;-69
2021/09/04 09:42:59;;;;;;;1.00;0.70;;;;;;;29.64;100.00;-21479.78;6276816;22;20386;-69
2021/09/04 09:45:42;;;;;;;1.20;0.73;;;;;;;29.73;100.00;-21482.06;6276592;22;20415;-69
2021/09/04 09:48:10;;;;;;;0.90;0.60;;;;;;;30.57;100.00;-21504.28;6276944;22;20362;-70
2021/09/04 09:50:38;;;;;;;0.87;0.73;;;;;;;30.12;100.00;-21492.44;6249817;22;20460;-69
2021/09/04 09:53:06;;;;;;;2.40;1.00;;;;;;;29.79;100.00;-21483.81;6277167;22;20434;-69
2021/09/04 09:55:33;;;;;;;1.90;1.20;;;;;;;29.37;100.00;-21472.78;6276847;22;20394;-70
2021/09/04 09:58:01;;;;;;;0.80;0.60;;;;;;;30.96;100.00;-21514.63;6276789;22;20394;-69
2021/09/04 10:00:29;;;;;;;1.30;1.20;;;;;;;29.26;100.00;-21469.81;6276823;22;20386;-70
2021/09/04 10:02:59;;;;;;;0.90;0.70;;;;;;;29.77;100.00;-21483.16;6246741;22;20548;-70
2021/09/04 10:05:30;;;;;;;1.13;1.03;;;;;;;29.79;100.00;-21483.81;6250097;22;20490;-70
2021/09/04 10:07:59;;;;;;;1.00;0.90;;;;;;;30.58;100.00;-21504.41;6250254;22;20460;-69
2021/09/04 10:10:32;;;;;;;0.90;0.70;;;;;;;30.42;100.00;-21500.38;6274689;22;20426;-70
2021/09/04 10:12:59;;;;;;;2.70;1.53;;;;;;;30.90;100.00;-21512.88;6275425;22;20375;-70
2021/09/04 10:15:29;;;;;;;1.13;1.03;;;;;;;29.81;100.00;-21484.34;6274460;22;20410;-72
2021/09/04 10:17:59;;;;;;;0.90;0.77;;;;;;;30.24;100.00;-21495.66;6276664;22;20718;-73
2021/09/04 10:20:28;;;;;;;1.00;0.77;;;;;;;30.61;100.00;-21505.22;6275555;22;20707;-70
2021/09/04 10:22:56;;;;;;;0.80;0.60;;;;;;;29.72;100.00;-21481.94;6276202;22;20407;-70
2021/09/04 10:25:25;;;;;;;1.10;0.73;;;;;;;30.45;100.00;-21501.03;6276637;22;20394;-71
2021/09/04 10:27:56;;;;;;;1.00;0.90;;;;;;;29.96;100.00;-21488.13;6275271;22;20425;-70
2021/09/04 10:30:28;;;;;;;1.10;1.00;;;;;;;30.55;100.00;-21503.72;6246852;22;20394;-70
2021/09/04 10:32:56;;;;;;;1.60;1.20;;;;;;;30.19;100.00;-21494.31;6275272;22;21060;-70
2021/09/04 10:35:38;;;;;;;1.90;0.80;;;;;;;30.77;100.00;-21509.66;6275862;22;20980;-70
2021/09/04 10:38:09;;;;;;;0.93;0.73;;;;;;;30.55;100.00;-21503.72;6248851;22;20450;-70
2021/09/04 10:40:38;;;;;;;1.20;0.80;;;;;;;30.68;100.00;-21507.22;6276374;22;20831;-69
2021/09/04 10:43:08;;;;;;;1.00;0.70;;;;;;;31.15;100.00;-21519.47;6276380;22;20436;-71
2021/09/04 10:45:37;;;;;;;1.23;0.73;;;;;;;30.98;100.00;-21515.03;6249100;22;20413;-70
2021/09/04 10:48:14;;;;;;;0.93;0.70;;;;;;;30.80;100.00;-21510.31;6275489;22;20375;-71
2021/09/04 10:50:59;;;;;;;2.50;2.20;;;;;;;30.08;100.00;-21491.50;6276428;22;20889;-69
2021/09/04 10:53:41;;;;;;;1.03;0.93;;;;;;;29.47;100.00;-21475.34;6223978;22;20426;-70
2021/09/04 10:56:29;;;;;;;1.23;1.03;;;;;;;30.87;100.00;-21512.22;6223665;22;20399;-70
2021/09/04 10:58:56;;;;;;;1.40;1.23;;;;;;;31.29;100.00;-21523.34;6276253;22;20672;-69
2021/09/04 11:01:26;;;;;;;1.43;0.93;;;;;;;30.90;100.00;-21512.88;6276335;22;20372;-69
2021/09/04 11:03:55;;;;;;;1.00;0.67;;;;;;;30.35;100.00;-21498.50;6276110;22;20458;-69
2021/09/04 11:06:24;;;;;;;1.63;1.10;;;;;;;30.78;100.00;-21509.94;6275886;22;20387;-69
2021/09/04 11:08:52;;;;;;;1.40;1.30;;;;;;;30.01;100.00;-21489.63;6274104;22;20418;-70
2021/09/04 11:11:27;;;;;;;1.17;0.80;;;;;;;31.50;100.00;-21528.72;6275494;22;20390;-70
2021/09/04 11:13:58;;;;;;;0.93;0.80;;;;;;;30.44;100.00;-21500.78;6249060;22;20786;-70
2021/09/04 11:16:51;;;;;;;1.83;1.10;;;;;;;30.79;100.00;-21510.06;6274728;22;20454;-69
2021/09/04 11:19:21;;;;;;;0.87;0.63;;;;;;;30.36;100.00;-21498.75;6276531;22;20379;-69
2021/09/04 11:21:59;;;;;;;1.47;1.20;;;;;;;30.53;100.00;-21503.19;6276209;22;20363;-70
2021/09/04 11:24:32;;;;;;;1.27;1.13;;;;;;;30.90;100.00;-21512.88;6276272;22;20398;-70
2021/09/04 11:27:04;;;;;;;1.13;0.70;;;;;;;30.24;100.00;-21495.66;6248412;22;20882;-70
2021/09/04 11:29:40;;;;;;;1.83;1.00;;;;;;;30.00;100.00;-21489.22;6248685;22;20410;-71